createdAt,value
2023-04-19T00:00:08.480Z,13.77
2023-04-19T00:02:36.688Z,13.63
2023-04-19T00:05:05.348Z,14.43
2023-04-19T00:07:33.308Z,15.03
2023-04-19T00:10:01.203Z,14.37
2023-04-19T00:12:30.566Z,14.87
2023-04-19T00:14:58.434Z,15.17
2023-04-19T00:17:27.403Z,14.93
2023-04-19T00:19:55.467Z,13.40
2023-04-19T00:22:23.383Z,14.40
2023-04-19T00:24:51.313Z,14.30
2023-04-19T00:27:19.229Z,14.83
2023-04-19T00:29:48.512Z,14.07
2023-04-19T00:32:16.937Z,15.00
2023-04-19T00:34:44.893Z,15.20
2023-04-19T00:37:12.867Z,14.37
2023-04-19T00:39:40.783Z,14.10
2023-04-19T00:42:08.815Z,15.03
2023-04-19T00:44:36.688Z,15.03
2023-04-19T00:47:06.370Z,17.30
2023-04-19T00:49:34.265Z,15.33
2023-04-19T00:52:02.150Z,15.73
2023-04-19T00:54:33.054Z,15.80
2023-04-19T00:57:01.560Z,15.70
2023-04-19T00:59:29.574Z,16.30
2023-04-19T01:01:57.801Z,16.13
2023-04-19T01:04:27.380Z,16.93
2023-04-19T01:06:55.485Z,15.83
2023-04-19T01:09:23.482Z,15.87
2023-04-19T01:11:51.544Z,16.37
2023-04-19T01:14:19.421Z,15.67
2023-04-19T01:16:48.046Z,16.17
2023-04-19T01:19:16.817Z,15.93
2023-04-19T01:21:46.493Z,16.53
2023-04-19T01:24:18.690Z,17.97
2023-04-19T01:26:46.701Z,17.17
2023-04-19T01:29:15.834Z,17.33
2023-04-19T01:31:44.088Z,16.40
2023-04-19T01:34:11.981Z,17.07
2023-04-19T01:36:39.794Z,17.17
2023-04-19T01:39:08.177Z,17.43
2023-04-19T01:41:37.492Z,19.23
2023-04-19T01:44:05.742Z,16.90
2023-04-19T01:46:33.590Z,16.33
2023-04-19T01:49:01.414Z,17.00
2023-04-19T01:51:29.296Z,17.30
2023-04-19T01:53:58.313Z,17.03
2023-04-19T01:56:26.251Z,15.20
2023-04-19T01:58:55.473Z,16.90
2023-04-19T02:01:23.469Z,17.03
2023-04-19T02:03:51.650Z,19.23
2023-04-19T02:06:19.877Z,17.73
2023-04-19T02:08:47.713Z,17.50
2023-04-19T02:11:15.644Z,17.63
2023-04-19T02:13:43.851Z,17.90
2023-04-19T02:16:13.138Z,18.37
2023-04-19T02:18:41.563Z,19.20
2023-04-19T02:21:10.488Z,19.60
2023-04-19T02:23:38.309Z,18.57
2023-04-19T02:26:06.452Z,19.13
2023-04-19T02:28:34.426Z,17.80
2023-04-19T02:31:06.015Z,17.83
2023-04-19T02:33:35.415Z,20.00
2023-04-19T02:36:03.350Z,17.97
2023-04-19T02:38:31.217Z,18.83
2023-04-19T02:41:00.780Z,19.03
2023-04-19T02:43:28.635Z,19.83
2023-04-19T02:45:56.567Z,18.10
2023-04-19T02:48:24.534Z,17.47
2023-04-19T02:50:53.781Z,18.33
2023-04-19T02:53:21.711Z,18.37
2023-04-19T02:55:49.547Z,19.20
2023-04-19T02:58:17.622Z,19.53
2023-04-19T03:00:45.462Z,18.53
2023-04-19T03:03:13.418Z,18.77
2023-04-19T03:05:41.344Z,18.47
2023-04-19T03:08:12.062Z,18.67
2023-04-19T03:10:39.949Z,19.57
2023-04-19T03:13:07.943Z,19.03
2023-04-19T03:15:35.988Z,17.47
2023-04-19T03:18:03.961Z,18.17
2023-04-19T03:20:31.832Z,17.70
2023-04-19T03:22:59.730Z,17.50
2023-04-19T03:25:29.061Z,17.73
2023-04-19T03:27:57.429Z,17.77
2023-04-19T03:30:25.282Z,18.23
2023-04-19T03:32:53.525Z,19.20
2023-04-19T03:35:22.468Z,17.63
2023-04-19T03:37:50.573Z,17.13
2023-04-19T03:40:18.552Z,16.40
2023-04-19T03:42:47.844Z,20.07
2023-04-19T03:45:15.738Z,16.53
2023-04-19T03:47:43.664Z,16.90
2023-04-19T03:50:11.790Z,17.97
2023-04-19T03:52:39.663Z,18.43
2023-04-19T03:55:08.638Z,15.20
2023-04-19T03:57:36.564Z,15.33
2023-04-19T04:00:08.332Z,17.40
2023-04-19T04:02:39.286Z,15.73
2023-04-19T04:05:08.039Z,16.00
2023-04-19T04:07:35.944Z,15.37
2023-04-19T04:10:03.912Z,16.57
2023-04-19T04:12:31.776Z,16.83
2023-04-19T04:14:59.654Z,19.53
2023-04-19T04:17:28.866Z,18.40
2023-04-19T04:19:56.707Z,18.50
2023-04-19T04:22:24.494Z,18.80
2023-04-19T04:24:53.930Z,17.60
2023-04-19T04:27:21.970Z,17.60
2023-04-19T04:29:50.644Z,18.80
2023-04-19T04:32:23.209Z,17.07
2023-04-19T04:34:52.963Z,18.17
2023-04-19T04:37:20.907Z,17.90
2023-04-19T04:39:48.785Z,16.80
2023-04-19T04:42:17.649Z,15.30
2023-04-19T04:44:47.368Z,17.63
2023-04-19T04:47:15.535Z,17.40
2023-04-19T04:49:43.383Z,18.47
2023-04-19T04:52:12.626Z,17.80
2023-04-19T04:54:40.509Z,18.60
2023-04-19T04:57:08.391Z,17.43
2023-04-19T04:59:36.697Z,18.37
2023-04-19T05:02:05.157Z,18.90
2023-04-19T05:04:33.148Z,19.30
2023-04-19T05:07:01.161Z,18.97
2023-04-19T05:09:30.369Z,18.30
2023-04-19T05:11:58.469Z,18.53
2023-04-19T05:14:26.391Z,19.90
2023-04-19T05:16:54.297Z,19.23
2023-04-19T05:19:22.163Z,20.03
2023-04-19T05:21:50.037Z,17.97
2023-04-19T05:24:18.304Z,18.70
2023-04-19T05:26:47.768Z,16.87
2023-04-19T05:29:15.651Z,16.13
2023-04-19T05:31:43.580Z,15.37
2023-04-19T05:34:11.490Z,15.47
2023-04-19T05:36:39.342Z,17.40
2023-04-19T05:39:07.174Z,19.57
2023-04-19T05:41:35.178Z,19.07
2023-04-19T05:44:04.465Z,18.70
2023-04-19T05:46:32.458Z,18.40
2023-04-19T05:49:00.779Z,15.70
2023-04-19T05:51:28.631Z,14.17
2023-04-19T05:53:57.367Z,13.63
2023-04-19T05:56:25.579Z,14.90
2023-04-19T05:58:55.742Z,14.53
2023-04-19T06:01:25.371Z,14.27
2023-04-19T06:03:54.402Z,15.13
2023-04-19T06:06:23.752Z,14.33
2023-04-19T06:08:54.449Z,14.57
2023-04-19T06:11:26.942Z,14.10
2023-04-19T06:14:02.960Z,14.33
2023-04-19T06:16:32.386Z,14.47
2023-04-19T06:19:00.480Z,13.97
2023-04-19T06:21:31.029Z,14.70
2023-04-19T06:23:58.894Z,13.70
2023-04-19T06:26:26.916Z,14.53
2023-04-19T06:28:54.814Z,14.63
2023-04-19T06:31:22.777Z,15.13
2023-04-19T06:33:52.201Z,14.27
2023-04-19T06:36:20.071Z,13.53
2023-04-19T06:38:47.913Z,13.93
2023-04-19T06:41:15.794Z,14.33
2023-04-19T06:43:44.844Z,14.50
2023-04-19T06:46:14.064Z,14.60
2023-04-19T06:48:42.384Z,14.10
2023-04-19T06:51:11.669Z,14.13
2023-04-19T06:53:39.546Z,13.27
2023-04-19T06:56:08.187Z,14.23
2023-04-19T06:58:36.108Z,13.73
2023-04-19T07:01:05.058Z,12.80
2023-04-19T07:03:33.226Z,12.73
2023-04-19T07:06:01.170Z,12.70
2023-04-19T07:08:42.357Z,13.13
2023-04-19T07:11:16.389Z,13.07
2023-04-19T07:13:44.246Z,15.03
2023-04-19T07:16:13.284Z,14.60
2023-04-19T07:18:41.298Z,14.50
2023-04-19T07:21:09.228Z,15.27
2023-04-19T07:23:38.482Z,14.57
2023-04-19T07:26:06.473Z,14.67
2023-04-19T07:28:34.626Z,14.93
2023-04-19T07:31:02.675Z,16.03
2023-04-19T07:33:31.416Z,14.20
2023-04-19T07:35:59.548Z,14.53
2023-04-19T07:38:27.463Z,13.90
2023-04-19T07:40:56.722Z,13.63
2023-04-19T07:43:24.605Z,15.13
2023-04-19T07:45:52.479Z,14.27
2023-04-19T07:48:20.345Z,14.80
2023-04-19T07:50:48.246Z,14.07
2023-04-19T07:53:16.536Z,13.13
2023-04-19T07:55:44.442Z,14.73
2023-04-19T07:58:13.778Z,14.30
2023-04-19T08:00:41.622Z,14.20
2023-04-19T08:03:09.747Z,13.97
2023-04-19T08:05:37.908Z,13.80
2023-04-19T08:08:06.291Z,13.57
2023-04-19T08:10:35.870Z,12.97
2023-04-19T08:13:06.301Z,12.97
2023-04-19T08:18:07.587Z,15.47
2023-04-19T08:20:36.875Z,13.20
2023-04-19T08:23:18.117Z,12.63
2023-04-19T08:25:49.195Z,13.00
2023-04-19T08:28:17.693Z,13.17
2023-04-19T08:30:46.944Z,12.90
2023-04-19T08:33:14.907Z,13.23
2023-04-19T08:35:43.159Z,13.20
2023-04-19T08:38:11.119Z,13.17
2023-04-19T08:40:43.582Z,13.47
2023-04-19T08:43:11.476Z,13.30
2023-04-19T08:45:39.917Z,14.00
2023-04-19T08:48:11.893Z,15.20
2023-04-19T08:50:55.818Z,14.97
2023-04-19T08:53:30.627Z,13.43
2023-04-19T09:01:06.614Z,13.77
2023-04-19T09:03:47.355Z,12.47
2023-04-19T09:06:24.181Z,12.37
2023-04-19T09:08:57.889Z,12.87
2023-04-19T09:11:37.573Z,13.43
2023-04-19T09:14:10.028Z,12.77
2023-04-19T09:16:39.373Z,11.50
2023-04-19T09:19:22.288Z,11.93
2023-04-19T09:21:54.195Z,12.33
2023-04-19T09:25:10.607Z,15.97
2023-04-19T09:27:29.195Z,13.97
2023-04-19T09:29:58.192Z,17.07
2023-04-19T09:32:26.515Z,17.53
2023-04-19T09:34:57.982Z,16.43
2023-04-19T09:37:53.374Z,15.83
2023-04-19T09:40:25.280Z,15.93
2023-04-19T09:48:05.213Z,16.40
2023-04-19T09:50:50.549Z,16.27
2023-04-19T09:53:24.564Z,14.37
2023-04-19T09:56:01.463Z,15.27
2023-04-19T09:58:46.330Z,16.40
2023-04-19T10:01:17.978Z,16.57
2023-04-19T10:03:46.900Z,15.17
2023-04-19T10:06:35.496Z,15.23
2023-04-19T10:09:06.531Z,14.47
2023-04-19T10:11:38.891Z,14.07
2023-04-19T10:14:09.216Z,13.60
2023-04-19T10:16:38.721Z,13.37
2023-04-19T10:19:10.329Z,13.97
2023-04-19T10:21:43.849Z,12.60
2023-04-19T10:24:14.571Z,12.90
2023-04-19T10:27:08.765Z,11.00
2023-04-19T10:29:58.851Z,12.47
2023-04-19T10:32:29.471Z,13.03
2023-04-19T10:35:03.847Z,11.57
2023-04-19T10:37:33.307Z,12.47
2023-04-19T10:40:01.378Z,12.10
2023-04-19T10:43:02.555Z,11.03
2023-04-19T10:45:34.223Z,9.90
2023-04-19T10:48:04.224Z,10.20
2023-04-19T10:50:52.856Z,9.23
2023-04-19T10:53:54.290Z,10.17
2023-04-19T10:56:24.379Z,9.23
2023-04-19T10:59:23.059Z,8.13
2023-04-19T11:01:58.654Z,8.33
2023-04-19T11:05:01.851Z,7.77
2023-04-19T11:07:29.847Z,8.23
2023-04-19T11:09:59.162Z,8.20
2023-04-19T11:12:27.078Z,7.20
2023-04-19T11:14:59.760Z,7.50
2023-04-19T11:17:31.132Z,7.63
2023-04-19T11:20:00.537Z,7.60
2023-04-19T11:22:33.132Z,7.77
2023-04-19T11:25:10.372Z,7.40
2023-04-19T11:27:39.231Z,7.10
2023-04-19T11:30:09.075Z,7.60
2023-04-19T11:32:37.630Z,6.87
2023-04-19T11:35:07.695Z,6.23
2023-04-19T11:37:36.447Z,6.03
2023-04-19T11:40:06.488Z,6.07
2023-04-19T11:42:36.096Z,5.83
2023-04-19T11:45:05.173Z,6.37
2023-04-19T11:47:35.475Z,5.20
2023-04-19T11:50:41.753Z,5.80
2023-04-19T11:53:14.702Z,5.40
2023-04-19T11:55:46.860Z,5.03
2023-04-19T11:58:31.132Z,4.87
2023-04-19T12:01:04.128Z,4.77
2023-04-19T12:03:32.211Z,4.97
2023-04-19T12:06:03.464Z,4.97
2023-04-19T12:08:33.007Z,4.67
2023-04-19T12:11:03.132Z,4.87
2023-04-19T12:13:33.470Z,4.57
2023-04-19T12:16:02.481Z,4.60
2023-04-19T12:18:46.246Z,4.30
2023-04-19T12:21:28.831Z,3.90
2023-04-19T12:23:58.290Z,5.30
2023-04-19T12:26:27.001Z,3.87
2023-04-19T12:28:56.714Z,4.50
2023-04-19T12:31:24.994Z,4.47
2023-04-19T12:33:52.950Z,4.47
2023-04-19T12:36:21.590Z,3.73
2023-04-19T12:38:49.644Z,3.97
2023-04-19T12:41:17.512Z,3.90
2023-04-19T12:43:45.350Z,4.10
2023-04-19T12:46:14.748Z,4.10
2023-04-19T12:48:42.615Z,4.47
2023-04-19T12:51:10.625Z,3.87
2023-04-19T12:53:38.537Z,4.70
2023-04-19T12:56:07.593Z,3.93
2023-04-19T12:58:35.669Z,4.10
2023-04-19T13:01:03.702Z,3.83
2023-04-19T13:03:33.264Z,4.10
2023-04-19T13:06:01.301Z,3.70
2023-04-19T13:08:43.813Z,3.60
2023-04-19T13:11:14.060Z,3.90
2023-04-19T13:13:41.964Z,4.83
2023-04-19T13:16:09.881Z,3.40
2023-04-19T13:18:39.209Z,2.80
2023-04-19T13:21:08.454Z,3.37
2023-04-19T13:23:36.609Z,2.60
2023-04-19T13:26:04.557Z,2.87
2023-04-19T13:28:32.414Z,2.60
2023-04-19T13:31:00.535Z,2.80
2023-04-19T13:33:28.397Z,2.90
2023-04-19T13:35:57.677Z,2.47
2023-04-19T13:38:27.985Z,2.60
2023-04-19T13:40:56.206Z,2.40
2023-04-19T13:43:24.117Z,2.30
2023-04-19T13:45:52.020Z,3.20
2023-04-19T13:48:19.907Z,1.77
2023-04-19T13:50:49.150Z,2.10
2023-04-19T13:53:20.200Z,2.70
2023-04-19T13:55:48.063Z,2.13
2023-04-19T13:58:15.975Z,2.60
2023-04-19T14:00:43.910Z,5.00
2023-04-19T14:03:12.385Z,2.40
2023-04-19T14:05:40.434Z,2.27
2023-04-19T14:08:08.315Z,2.10
2023-04-19T14:10:40.474Z,1.57
2023-04-19T14:13:08.400Z,2.80
2023-04-19T14:15:38.319Z,2.30
2023-04-19T14:18:06.404Z,2.13
2023-04-19T14:20:34.448Z,2.13
2023-04-19T14:23:02.781Z,2.70
2023-04-19T14:25:31.045Z,7.03
2023-04-19T14:28:00.749Z,2.83
2023-04-19T14:30:29.992Z,3.47
2023-04-19T14:32:59.117Z,2.93
2023-04-19T14:35:27.079Z,2.47
2023-04-19T14:37:54.981Z,3.10
2023-04-19T14:40:22.867Z,3.40
2023-04-19T14:42:54.312Z,3.87
2023-04-19T14:45:23.597Z,3.63
2023-04-19T14:47:51.533Z,2.93
2023-04-19T14:50:21.551Z,2.90
2023-04-19T14:52:49.712Z,3.07
2023-04-19T14:55:17.595Z,2.60
2023-04-19T14:57:45.544Z,2.87
2023-04-19T15:00:14.511Z,2.10
2023-04-19T15:02:44.029Z,2.40
2023-04-19T15:05:12.038Z,2.80
2023-04-19T15:07:40.044Z,2.60
2023-04-19T15:10:09.068Z,3.50
2023-04-19T15:12:36.937Z,4.57
2023-04-19T15:15:05.502Z,3.17
2023-04-19T15:17:33.531Z,4.67
2023-04-19T15:20:02.921Z,4.77
2023-04-19T15:22:30.768Z,4.03
2023-04-19T15:24:58.879Z,6.87
2023-04-19T15:27:26.865Z,7.23
2023-04-19T15:29:55.195Z,8.90
2023-04-19T15:32:23.090Z,5.53
2023-04-19T15:34:50.985Z,6.93
2023-04-19T15:37:20.276Z,6.00
2023-04-19T15:39:50.253Z,3.00
2023-04-19T15:42:18.118Z,2.63
2023-04-19T15:44:46.093Z,2.87
2023-04-19T15:47:13.958Z,2.30
2023-04-19T15:49:41.849Z,3.53
2023-04-19T15:52:09.998Z,3.40
2023-04-19T15:54:39.272Z,3.20
2023-04-19T15:57:07.144Z,2.97
2023-04-19T15:59:35.010Z,4.13
2023-04-19T16:02:02.964Z,3.60
2023-04-19T16:04:31.432Z,4.23
2023-04-19T16:06:59.450Z,3.43
2023-04-19T16:09:27.497Z,3.10
2023-04-19T16:11:56.775Z,4.27
2023-04-19T16:14:25.130Z,3.90
2023-04-19T16:16:53.835Z,3.03
2023-04-19T16:19:26.430Z,4.50
2023-04-19T16:21:54.302Z,2.57
2023-04-19T16:24:22.145Z,4.73
2023-04-19T16:26:49.981Z,5.30
2023-04-19T16:29:19.442Z,3.43
2023-04-19T16:31:48.578Z,3.77
2023-04-19T16:34:19.029Z,3.33
2023-04-19T16:36:47.074Z,3.40
2023-04-19T16:39:15.130Z,2.70
2023-04-19T16:41:43.971Z,3.33
2023-04-19T16:44:12.414Z,15.90
2023-04-19T16:46:41.649Z,3.93
2023-04-19T16:49:09.679Z,2.60
2023-04-19T16:51:37.551Z,2.87
2023-04-19T16:54:05.678Z,2.73
2023-04-19T16:56:33.550Z,2.73
2023-04-19T16:59:01.437Z,2.80
2023-04-19T17:01:29.348Z,2.90
2023-04-19T17:03:58.733Z,2.63
2023-04-19T17:06:27.827Z,2.97
2023-04-19T17:08:55.680Z,2.83
2023-04-19T17:11:23.875Z,2.67
2023-04-19T17:13:51.727Z,2.77
2023-04-19T17:16:19.718Z,2.50
2023-04-19T17:18:47.713Z,3.70
2023-04-19T17:21:17.094Z,3.90
2023-04-19T17:23:46.373Z,5.67
2023-04-19T17:26:14.276Z,3.63
2023-04-19T17:28:42.701Z,4.60
2023-04-19T17:31:10.726Z,4.07
2023-04-19T17:33:38.777Z,4.13
2023-04-19T17:36:07.695Z,5.43
2023-04-19T17:38:37.229Z,3.23
2023-04-19T17:41:08.559Z,3.50
2023-04-19T17:43:36.461Z,4.27
2023-04-19T17:46:04.361Z,3.20
2023-04-19T17:48:32.210Z,3.17
2023-04-19T17:51:00.149Z,3.30
2023-04-19T17:53:28.127Z,3.50
2023-04-19T17:55:57.381Z,3.90
2023-04-19T17:58:25.422Z,4.40
2023-04-19T18:00:53.282Z,3.37
2023-04-19T18:03:21.357Z,4.27
2023-04-19T18:05:49.510Z,3.27
2023-04-19T18:08:17.473Z,3.33
2023-04-19T18:10:45.324Z,4.13
2023-04-19T18:13:14.563Z,3.90
2023-04-19T18:15:42.396Z,3.37
2023-04-19T18:18:10.316Z,3.67
2023-04-19T18:20:38.407Z,3.43
2023-04-19T18:23:06.338Z,4.17
2023-04-19T18:25:36.762Z,3.20
2023-04-19T18:28:05.161Z,3.80
2023-04-19T18:30:35.956Z,3.97
2023-04-19T18:33:03.862Z,5.20
2023-04-19T18:35:33.207Z,3.90
2023-04-19T18:38:01.668Z,5.30
2023-04-19T18:40:29.609Z,5.00
2023-04-19T18:42:57.618Z,4.53
2023-04-19T18:45:26.265Z,4.83
2023-04-19T18:47:56.024Z,3.80
2023-04-19T18:50:24.448Z,4.43
2023-04-19T18:52:52.496Z,5.07
2023-04-19T18:55:20.582Z,5.30
2023-04-19T18:57:48.497Z,4.60
2023-04-19T19:00:17.504Z,5.10
2023-04-19T19:02:46.948Z,4.77
2023-04-19T19:05:18.066Z,4.63
2023-04-19T19:07:46.486Z,5.37
2023-04-19T19:10:19.451Z,5.10
2023-04-19T19:12:50.143Z,5.33
2023-04-19T19:15:18.292Z,5.40
2023-04-19T19:17:49.884Z,4.60
2023-04-19T19:20:20.785Z,4.60
2023-04-19T19:22:51.293Z,4.87
2023-04-19T19:25:19.583Z,5.67
2023-04-19T19:28:05.616Z,4.30
2023-04-19T19:30:34.994Z,5.00
2023-04-19T19:33:04.774Z,4.93
2023-04-19T19:35:34.494Z,5.27
2023-04-19T19:38:02.401Z,5.03
2023-04-19T19:40:32.491Z,5.60
2023-04-19T19:43:01.088Z,5.23
2023-04-19T19:45:29.714Z,5.90
2023-04-19T19:48:00.055Z,5.30
2023-04-19T19:53:01.880Z,5.67
2023-04-19T19:55:30.318Z,5.07
2023-04-19T20:03:00.277Z,5.73
2023-04-19T20:05:29.008Z,5.00
2023-04-19T20:08:08.794Z,4.33
2023-04-19T20:10:38.297Z,4.47
2023-04-19T20:13:07.003Z,4.93
2023-04-19T20:15:35.813Z,5.37
2023-04-19T20:18:03.698Z,6.67
2023-04-19T20:20:31.717Z,5.13
2023-04-19T20:22:59.593Z,4.70
2023-04-19T20:25:31.175Z,4.97
2023-04-19T20:27:59.541Z,5.90
2023-04-19T20:30:27.474Z,4.63
2023-04-19T20:32:55.451Z,5.73
2023-04-19T20:35:24.103Z,4.87
2023-04-19T20:37:52.040Z,4.60
2023-04-19T20:40:19.981Z,5.17
2023-04-19T20:42:49.218Z,5.33
2023-04-19T20:45:17.091Z,5.17
2023-04-19T20:47:45.003Z,6.17
2023-04-19T20:50:13.900Z,5.07
2023-04-19T20:52:42.018Z,5.50
2023-04-19T20:55:10.566Z,5.97
2023-04-19T20:57:38.401Z,5.00
2023-04-19T21:00:10.010Z,5.83
2023-04-19T21:02:37.979Z,5.60
2023-04-19T21:05:07.110Z,5.33
2023-04-19T21:07:34.988Z,5.60
2023-04-19T21:10:02.925Z,6.20
2023-04-19T21:12:30.781Z,5.73
2023-04-19T21:14:58.638Z,5.90
2023-04-19T21:17:28.036Z,6.53
2023-04-19T21:19:55.880Z,6.50
2023-04-19T21:22:23.747Z,6.10
2023-04-19T21:24:51.612Z,6.70
2023-04-19T21:27:19.497Z,6.33
2023-04-19T21:29:47.462Z,5.60
2023-04-19T21:32:15.295Z,5.50
2023-04-19T21:34:45.127Z,6.00
2023-04-19T21:37:12.997Z,5.97
2023-04-19T21:39:40.853Z,5.30
2023-04-19T21:42:08.763Z,5.83
2023-04-19T21:44:36.604Z,5.80
2023-04-19T21:47:04.763Z,5.83
2023-04-19T21:49:32.669Z,5.93
2023-04-19T21:52:01.939Z,6.27
2023-04-19T21:54:33.998Z,5.70
2023-04-19T21:57:03.235Z,6.37
2023-04-19T21:59:31.469Z,5.67
2023-04-19T22:02:00.051Z,5.90
2023-04-19T22:04:30.692Z,5.47
2023-04-19T22:07:02.327Z,5.83
2023-04-19T22:09:32.146Z,5.50
2023-04-19T22:12:00.118Z,6.43
2023-04-19T22:14:28.515Z,5.97
2023-04-19T22:16:56.764Z,6.77
2023-04-19T22:19:24.961Z,5.93
2023-04-19T22:21:55.236Z,5.97
2023-04-19T22:24:23.283Z,5.83
2023-04-19T22:26:53.057Z,6.33
2023-04-19T22:29:21.479Z,6.30
2023-04-19T22:31:49.409Z,6.30
2023-04-19T22:34:17.362Z,6.10
2023-04-19T22:36:45.412Z,6.10
2023-04-19T22:39:13.710Z,6.20
2023-04-19T22:41:41.627Z,6.50
2023-04-19T22:44:10.835Z,5.97
2023-04-19T22:46:39.004Z,6.73
2023-04-19T22:49:07.849Z,6.80
2023-04-19T22:51:36.729Z,8.07
2023-04-19T22:54:05.046Z,7.20
2023-04-19T22:56:32.962Z,7.27
2023-04-19T22:59:01.025Z,6.53
2023-04-19T23:01:30.345Z,7.00
2023-04-19T23:03:58.372Z,7.07
2023-04-19T23:06:26.312Z,6.77
2023-04-19T23:08:54.154Z,6.50
2023-04-19T23:11:24.870Z,6.17
2023-04-19T23:13:54.169Z,6.03
2023-04-19T23:16:24.250Z,6.47
2023-04-19T23:18:54.398Z,6.43
2023-04-19T23:21:22.404Z,5.77
2023-04-19T23:23:51.480Z,6.00
2023-04-19T23:26:19.343Z,6.13
2023-04-19T23:28:47.210Z,7.20
2023-04-19T23:31:15.162Z,7.60
2023-04-19T23:33:43.075Z,6.50
2023-04-19T23:36:12.360Z,6.57
2023-04-19T23:38:40.213Z,6.00
2023-04-19T23:41:10.732Z,6.53
2023-04-19T23:43:38.707Z,6.30
2023-04-19T23:46:07.427Z,6.60
2023-04-19T23:48:36.119Z,6.00
2023-04-19T23:51:04.014Z,6.30
2023-04-19T23:53:33.273Z,6.37
2023-04-19T23:56:01.160Z,6.77
2023-04-19T23:58:29.001Z,7.00
